sensor_id;sensor_type;location;lat;lon;timestamp;pressure;altitude;pressure_sealevel;temperature;humidity
30714;BME280;17465;47.934;33.430;2023-03-31T00:01:52;57331.49;;;-140.43;66.25
30714;BME280;17465;47.934;33.430;2023-03-31T00:04:25;57367.50;;;-140.43;66.88
30714;BME280;17465;47.934;33.430;2023-03-31T00:07:00;57342.08;;;-140.43;67.02
30714;BME280;17465;47.934;33.430;2023-03-31T00:09:36;57335.73;;;-140.43;66.76
30714;BME280;17465;47.934;33.430;2023-03-31T00:12:04;57356.91;;;-140.43;66.24
30714;BME280;17465;47.934;33.430;2023-03-31T00:14:36;57348.43;;;-140.43;65.98
30714;BME280;17465;47.934;33.430;2023-03-31T00:17:06;57348.43;;;-140.43;65.98
30714;BME280;17465;47.934;33.430;2023-03-31T00:19:37;57341.02;;;-140.43;66.15
30714;BME280;17465;47.934;33.430;2023-03-31T00:22:08;57341.02;;;-140.43;66.15
30714;BME280;17465;47.934;33.430;2023-03-31T00:24:38;57348.43;;;-140.43;66.96
30714;BME280;17465;47.934;33.430;2023-03-31T00:27:09;57356.91;;;-140.43;67.43
30714;BME280;17465;47.934;33.430;2023-03-31T00:29:39;57343.14;;;-140.43;67.68
30714;BME280;17465;47.934;33.430;2023-03-31T00:32:10;57343.14;;;-140.43;67.68
30714;BME280;17465;47.934;33.430;2023-03-31T00:34:41;57339.96;;;-140.43;67.91
30714;BME280;17465;47.934;33.430;2023-03-31T00:37:11;57339.96;;;-140.43;67.79
30714;BME280;17465;47.934;33.430;2023-03-31T00:39:42;57353.73;;;-140.43;68.98
30714;BME280;17465;47.934;33.430;2023-03-31T00:42:12;57306.07;;;-140.43;68.28
30714;BME280;17465;47.934;33.430;2023-03-31T00:47:53;57362.20;;;-140.43;69.79
30714;BME280;17465;47.934;33.430;2023-03-31T00:50:29;57362.20;;;-140.43;69.79
30714;BME280;17465;47.934;33.430;2023-03-31T00:53:10;57347.38;;;-140.43;70.27
30714;BME280;17465;47.934;33.430;2023-03-31T00:55:42;57341.02;;;-140.43;70.92
30714;BME280;17465;47.934;33.430;2023-03-31T00:58:15;57352.67;;;-140.43;72.04
30714;BME280;17465;47.934;33.430;2023-03-31T01:00:48;57352.67;;;-140.43;72.04
30714;BME280;17465;47.934;33.430;2023-03-31T01:03:20;57347.38;;;-140.43;72.11
30714;BME280;17465;47.934;33.430;2023-03-31T01:05:54;57345.26;;;-140.43;72.26
30714;BME280;17465;47.934;33.430;2023-03-31T01:08:27;57341.02;;;-140.43;73.11
30714;BME280;17465;47.934;33.430;2023-03-31T01:11:01;57349.49;;;-140.43;73.29
30714;BME280;17465;47.934;33.430;2023-03-31T01:13:33;57338.90;;;-140.43;73.29
30714;BME280;17465;47.934;33.430;2023-03-31T01:16:03;57355.85;;;-140.43;73.70
30714;BME280;17465;47.934;33.430;2023-03-31T01:18:34;57361.14;;;-140.43;74.19
30714;BME280;17465;47.934;33.430;2023-03-31T01:21:17;57361.14;;;-140.43;74.19
30714;BME280;17465;47.934;33.430;2023-03-31T01:26:52;57335.73;;;-140.43;74.20
30714;BME280;17465;47.934;33.430;2023-03-31T01:52:36;57346.32;;;-140.43;73.29
30714;BME280;17465;47.934;33.430;2023-03-31T01:57:52;57318.78;;;-140.43;74.03
30714;BME280;17465;47.934;33.430;2023-03-31T02:00:27;57349.49;;;-140.43;73.59
30714;BME280;17465;47.934;33.430;2023-03-31T02:03:04;57361.14;;;-140.43;74.19
30714;BME280;17465;47.934;33.430;2023-03-31T02:05:48;57352.67;;;-140.43;73.33
30714;BME280;17465;47.934;33.430;2023-03-31T02:08:19;57354.79;;;-140.43;72.95
30714;BME280;17465;47.934;33.430;2023-03-31T02:11:07;57341.02;;;-140.43;74.02
30714;BME280;17465;47.934;33.430;2023-03-31T02:13:40;57355.85;;;-140.43;74.68
30714;BME280;17465;47.934;33.430;2023-03-31T02:16:15;57355.85;;;-140.43;74.68
30714;BME280;17465;47.934;33.430;2023-03-31T02:18:46;57332.55;;;-140.43;74.98
30714;BME280;17465;47.934;33.430;2023-03-31T02:21:19;57335.73;;;-140.43;74.51
30714;BME280;17465;47.934;33.430;2023-03-31T02:23:51;57333.61;;;-140.43;73.69
30714;BME280;17465;47.934;33.430;2023-03-31T02:26:24;57333.61;;;-140.43;73.69
30714;BME280;17465;47.934;33.430;2023-03-31T02:28:56;57349.49;;;-140.43;73.82
30714;BME280;17465;47.934;33.430;2023-03-31T02:31:40;57349.49;;;-140.43;73.82
30714;BME280;17465;47.934;33.430;2023-03-31T02:34:10;57344.20;;;-140.43;73.92
30714;BME280;17465;47.934;33.430;2023-03-31T02:36:42;57334.67;;;-140.43;74.37
30714;BME280;17465;47.934;33.430;2023-03-31T02:39:16;57350.55;;;-140.43;75.25
30714;BME280;17465;47.934;33.430;2023-03-31T02:41:47;57344.20;;;-140.43;75.31
30714;BME280;17465;47.934;33.430;2023-03-31T02:44:17;57337.84;;;-140.43;76.07
30714;BME280;17465;47.934;33.430;2023-03-31T02:46:49;57337.84;;;-140.43;76.07
30714;BME280;17465;47.934;33.430;2023-03-31T02:49:20;57344.20;;;-140.43;77.14
30714;BME280;17465;47.934;33.430;2023-03-31T02:52:19;57344.20;;;-140.43;77.14
30714;BME280;17465;47.934;33.430;2023-03-31T02:54:58;57347.38;;;-140.43;78.02
30714;BME280;17465;47.934;33.430;2023-03-31T02:57:48;57354.79;;;-140.43;77.77
30714;BME280;17465;47.934;33.430;2023-03-31T03:03:19;57373.85;;;-140.43;77.77
30714;BME280;17465;47.934;33.430;2023-03-31T03:08:35;57333.61;;;-140.43;77.32
30714;BME280;17465;47.934;33.430;2023-03-31T03:11:30;57313.48;;;-140.43;77.85
30714;BME280;17465;47.934;33.430;2023-03-31T03:14:17;57326.20;;;-140.43;77.51
30714;BME280;17465;47.934;33.430;2023-03-31T03:16:52;57326.20;;;-140.43;77.51
30714;BME280;17465;47.934;33.430;2023-03-31T03:19:22;57335.73;;;-140.43;77.55
30714;BME280;17465;47.934;33.430;2023-03-31T03:21:54;57362.20;;;-140.43;78.08
30714;BME280;17465;47.934;33.430;2023-03-31T03:24:24;57342.08;;;-140.43;77.93
30714;BME280;17465;47.934;33.430;2023-03-31T03:26:56;57363.26;;;-140.43;77.75
30714;BME280;17465;47.934;33.430;2023-03-31T03:29:27;57349.49;;;-140.43;77.58
30714;BME280;17465;47.934;33.430;2023-03-31T03:31:57;57360.08;;;-140.43;77.63
30714;BME280;17465;47.934;33.430;2023-03-31T03:34:28;57326.20;;;-140.43;76.96
30714;BME280;17465;47.934;33.430;2023-03-31T03:36:59;57321.96;;;-140.43;75.67
30714;BME280;17465;47.934;33.430;2023-03-31T03:39:29;57329.37;;;-140.43;75.84
30714;BME280;17465;47.934;33.430;2023-03-31T03:42:00;57344.20;;;-140.43;75.37
30714;BME280;17465;47.934;33.430;2023-03-31T03:44:31;57346.32;;;-140.43;75.35
30714;BME280;17465;47.934;33.430;2023-03-31T03:47:01;57320.90;;;-140.43;75.82
30714;BME280;17465;47.934;33.430;2023-03-31T03:49:33;57328.31;;;-140.43;75.70
30714;BME280;17465;47.934;33.430;2023-03-31T03:52:04;57328.31;;;-140.43;75.70
30714;BME280;17465;47.934;33.430;2023-03-31T03:54:35;57342.08;;;-140.43;74.59
30714;BME280;17465;47.934;33.430;2023-03-31T03:57:06;57353.73;;;-140.43;74.92
30714;BME280;17465;47.934;33.430;2023-03-31T03:59:36;57335.73;;;-140.43;74.77
30714;BME280;17465;47.934;33.430;2023-03-31T04:02:08;57335.73;;;-140.43;74.77
30714;BME280;17465;47.934;33.430;2023-03-31T04:04:40;57353.73;;;-140.43;74.69
30714;BME280;17465;47.934;33.430;2023-03-31T04:07:10;57333.61;;;-140.43;73.83
30714;BME280;17465;47.934;33.430;2023-03-31T04:09:41;57333.61;;;-140.43;73.83
30714;BME280;17465;47.934;33.430;2023-03-31T04:12:12;57352.67;;;-140.43;74.51
30714;BME280;17465;47.934;33.430;2023-03-31T04:14:43;57355.85;;;-140.43;74.60
30714;BME280;17465;47.934;33.430;2023-03-31T04:17:14;57355.85;;;-140.43;74.26
30714;BME280;17465;47.934;33.430;2023-03-31T04:19:45;57355.85;;;-140.43;74.26
30714;BME280;17465;47.934;33.430;2023-03-31T04:22:16;57348.43;;;-140.43;74.32
30714;BME280;17465;47.934;33.430;2023-03-31T04:24:46;57343.14;;;-140.43;74.11
30714;BME280;17465;47.934;33.430;2023-03-31T04:27:17;57343.14;;;-140.43;74.11
30714;BME280;17465;47.934;33.430;2023-03-31T04:29:47;57339.96;;;-140.43;74.13
30714;BME280;17465;47.934;33.430;2023-03-31T04:32:18;57339.96;;;-140.43;74.13
30714;BME280;17465;47.934;33.430;2023-03-31T04:34:48;57311.37;;;-140.43;74.03
30714;BME280;17465;47.934;33.430;2023-03-31T04:37:19;57348.43;;;-140.43;73.35
30714;BME280;17465;47.934;33.430;2023-03-31T04:39:49;57339.96;;;-140.43;73.01
30714;BME280;17465;47.934;33.430;2023-03-31T04:42:19;57339.96;;;-140.43;73.01
30714;BME280;17465;47.934;33.430;2023-03-31T04:44:50;57309.25;;;-140.43;72.07
30714;BME280;17465;47.934;33.430;2023-03-31T04:47:21;57309.25;;;-140.43;72.07
30714;BME280;17465;47.934;33.430;2023-03-31T04:49:53;57367.50;;;-140.43;74.39
30714;BME280;17465;47.934;33.430;2023-03-31T04:52:23;57332.55;;;-140.43;73.35
30714;BME280;17465;47.934;33.430;2023-03-31T04:54:54;57336.79;;;-140.43;72.92
30714;BME280;17465;47.934;33.430;2023-03-31T04:57:25;57336.79;;;-140.43;72.92
30714;BME280;17465;47.934;33.430;2023-03-31T04:59:55;57330.43;;;-140.43;73.59
30714;BME280;17465;47.934;33.430;2023-03-31T05:02:26;57328.31;;;-140.43;71.90
30714;BME280;17465;47.934;33.430;2023-03-31T05:04:56;57339.96;;;-140.43;71.05
30714;BME280;17465;47.934;33.430;2023-03-31T05:07:27;57314.55;;;-140.43;71.53
30714;BME280;17465;47.934;33.430;2023-03-31T05:09:57;57356.91;;;-140.43;71.42
30714;BME280;17465;47.934;33.430;2023-03-31T05:12:27;57356.91;;;-140.43;71.42
30714;BME280;17465;47.934;33.430;2023-03-31T05:14:58;57338.90;;;-140.43;71.77
30714;BME280;17465;47.934;33.430;2023-03-31T05:17:34;57320.90;;;-140.43;70.06
30714;BME280;17465;47.934;33.430;2023-03-31T05:20:06;57316.66;;;-140.43;70.83
30714;BME280;17465;47.934;33.430;2023-03-31T05:22:38;57320.90;;;-140.43;70.49
30714;BME280;17465;47.934;33.430;2023-03-31T05:25:11;57333.61;;;-140.43;70.80
30714;BME280;17465;47.934;33.430;2023-03-31T05:27:41;57333.61;;;-140.43;70.80
30714;BME280;17465;47.934;33.430;2023-03-31T05:30:13;57346.32;;;-140.43;71.04
30714;BME280;17465;47.934;33.430;2023-03-31T05:32:44;57346.32;;;-140.43;71.04
30714;BME280;17465;47.934;33.430;2023-03-31T05:35:15;57329.37;;;-140.43;70.73
30714;BME280;17465;47.934;33.430;2023-03-31T05:37:45;57315.61;;;-140.43;69.21
30714;BME280;17465;47.934;33.430;2023-03-31T05:40:16;57321.96;;;-140.43;68.32
30714;BME280;17465;47.934;33.430;2023-03-31T05:42:49;57321.96;;;-140.43;68.32
30714;BME280;17465;47.934;33.430;2023-03-31T05:45:24;57315.61;;;-140.43;68.01
30714;BME280;17465;47.934;33.430;2023-03-31T05:47:54;57303.95;;;-140.43;68.50
30714;BME280;17465;47.934;33.430;2023-03-31T05:50:26;57316.66;;;-140.43;68.50
30714;BME280;17465;47.934;33.430;2023-03-31T05:52:57;57314.55;;;-140.43;67.89
30714;BME280;17465;47.934;33.430;2023-03-31T05:55:28;57339.96;;;-140.43;67.34
30714;BME280;17465;47.934;33.430;2023-03-31T05:58:00;57315.61;;;-140.43;67.07
30714;BME280;17465;47.934;33.430;2023-03-31T06:00:31;57315.61;;;-140.43;67.07
30714;BME280;17465;47.934;33.430;2023-03-31T06:03:02;57333.61;;;-140.43;67.04
30714;BME280;17465;47.934;33.430;2023-03-31T06:05:34;57309.25;;;-140.43;66.04
30714;BME280;17465;47.934;33.430;2023-03-31T06:08:04;57318.78;;;-140.43;66.20
30714;BME280;17465;47.934;33.430;2023-03-31T06:10:37;57318.78;;;-140.43;66.08
30714;BME280;17465;47.934;33.430;2023-03-31T06:13:07;57298.66;;;-140.43;66.58
30714;BME280;17465;47.934;33.430;2023-03-31T06:15:38;57298.66;;;-140.43;66.58
30714;BME280;17465;47.934;33.430;2023-03-31T06:18:09;57314.55;;;-140.43;64.49
30714;BME280;17465;47.934;33.430;2023-03-31T06:20:41;57314.55;;;-140.43;64.67
30714;BME280;17465;47.934;33.430;2023-03-31T06:23:12;57314.55;;;-140.43;64.67
30714;BME280;17465;47.934;33.430;2023-03-31T06:25:43;57295.48;;;-140.43;63.17
30714;BME280;17465;47.934;33.430;2023-03-31T06:28:19;57295.48;;;-140.43;63.17
30714;BME280;17465;47.934;33.430;2023-03-31T06:30:50;57310.31;;;-140.43;63.23
30714;BME280;17465;47.934;33.430;2023-03-31T06:33:21;57310.31;;;-140.43;63.23
30714;BME280;17465;47.934;33.430;2023-03-31T06:35:56;57329.37;;;-140.43;63.28
30714;BME280;17465;47.934;33.430;2023-03-31T06:38:27;57318.78;;;-140.43;63.03
30714;BME280;17465;47.934;33.430;2023-03-31T06:40:57;57321.96;;;-140.43;63.10
30714;BME280;17465;47.934;33.430;2023-03-31T06:43:27;57281.71;;;-140.43;63.00
30714;BME280;17465;47.934;33.430;2023-03-31T06:45:58;57284.89;;;-140.43;62.20
30714;BME280;17465;47.934;33.430;2023-03-31T06:48:29;57291.25;;;-140.43;61.54
30714;BME280;17465;47.934;33.430;2023-03-31T06:51:02;57291.25;;;-140.43;61.54
30714;BME280;17465;47.934;33.430;2023-03-31T06:53:34;57297.60;;;-140.43;60.83
30714;BME280;17465;47.934;33.430;2023-03-31T06:56:05;57254.18;;;-140.43;59.84
30714;BME280;17465;47.934;33.430;2023-03-31T06:58:36;57320.90;;;-140.43;59.69
30714;BME280;17465;47.934;33.430;2023-03-31T07:01:06;57320.90;;;-140.43;59.69
30714;BME280;17465;47.934;33.430;2023-03-31T07:03:38;57300.78;;;-140.43;58.16
30714;BME280;17465;47.934;33.430;2023-03-31T07:06:08;57303.95;;;-140.43;58.77
30714;BME280;17465;47.934;33.430;2023-03-31T07:08:39;57291.25;;;-140.43;57.59
30714;BME280;17465;47.934;33.430;2023-03-31T07:11:10;57290.18;;;-140.43;57.06
30714;BME280;17465;47.934;33.430;2023-03-31T07:13:41;57290.18;;;-140.43;57.06
30714;BME280;17465;47.934;33.430;2023-03-31T07:16:11;57284.89;;;-140.43;56.28
30714;BME280;17465;47.934;33.430;2023-03-31T07:18:41;57287.01;;;-140.43;55.62
30714;BME280;17465;47.934;33.430;2023-03-31T07:21:13;57298.66;;;-140.43;55.32
30714;BME280;17465;47.934;33.430;2023-03-31T07:23:45;57298.66;;;-140.43;55.32
30714;BME280;17465;47.934;33.430;2023-03-31T07:26:15;57297.60;;;-140.43;54.48
30714;BME280;17465;47.934;33.430;2023-03-31T07:28:46;57300.78;;;-140.43;53.59
30714;BME280;17465;47.934;33.430;2023-03-31T07:31:18;57300.78;;;-140.43;53.59
30714;BME280;17465;47.934;33.430;2023-03-31T07:34:07;57300.78;;;-140.43;53.23
30714;BME280;17465;47.934;33.430;2023-03-31T07:36:32;57300.78;;;-140.43;53.23
30714;BME280;17465;47.934;33.430;2023-03-31T07:39:11;57288.07;;;-140.43;52.55
30714;BME280;17465;47.934;33.430;2023-03-31T07:41:49;57288.07;;;-140.43;51.08
30714;BME280;17465;47.934;33.430;2023-03-31T07:44:22;57288.07;;;-140.43;51.08
30714;BME280;17465;47.934;33.430;2023-03-31T07:47:08;57295.48;;;-140.43;50.08
30714;BME280;17465;47.934;33.430;2023-03-31T07:49:39;57303.95;;;-140.43;49.08
30714;BME280;17465;47.934;33.430;2023-03-31T07:52:10;57282.77;;;-140.43;48.56
30714;BME280;17465;47.934;33.430;2023-03-31T07:54:40;57263.71;;;-140.43;48.52
30714;BME280;17465;47.934;33.430;2023-03-31T07:57:12;57282.77;;;-140.43;47.59
30714;BME280;17465;47.934;33.430;2023-03-31T07:59:43;57300.78;;;-140.43;47.20
30714;BME280;17465;47.934;33.430;2023-03-31T08:02:16;57300.78;;;-140.43;47.20
30714;BME280;17465;47.934;33.430;2023-03-31T08:04:47;57293.36;;;-140.43;46.79
30714;BME280;17465;47.934;33.430;2023-03-31T08:07:17;57255.24;;;-140.43;47.28
30714;BME280;17465;47.934;33.430;2023-03-31T08:09:47;57287.01;;;-140.43;46.15
30714;BME280;17465;47.934;33.430;2023-03-31T08:12:18;57272.18;;;-140.43;46.44
30714;BME280;17465;47.934;33.430;2023-03-31T08:14:48;57272.18;;;-140.43;46.44
30714;BME280;17465;47.934;33.430;2023-03-31T08:17:21;57282.77;;;-140.43;46.84
30714;BME280;17465;47.934;33.430;2023-03-31T08:19:58;57290.18;;;-140.43;45.50
30714;BME280;17465;47.934;33.430;2023-03-31T08:22:25;57288.07;;;-140.43;44.81
30714;BME280;17465;47.934;33.430;2023-03-31T08:24:59;57289.13;;;-140.43;44.11
30714;BME280;17465;47.934;33.430;2023-03-31T08:27:40;57301.84;;;-140.43;43.66
30714;BME280;17465;47.934;33.430;2023-03-31T08:30:09;57292.30;;;-140.43;43.68
30714;BME280;17465;47.934;33.430;2023-03-31T08:32:41;57297.60;;;-140.43;44.20
30714;BME280;17465;47.934;33.430;2023-03-31T08:35:11;57263.71;;;-140.43;43.61
30714;BME280;17465;47.934;33.430;2023-03-31T08:37:42;57309.25;;;-140.43;43.50
30714;BME280;17465;47.934;33.430;2023-03-31T08:40:15;57279.59;;;-140.43;43.47
30714;BME280;17465;47.934;33.430;2023-03-31T08:42:48;57288.07;;;-140.43;42.93
30714;BME280;17465;47.934;33.430;2023-03-31T08:48:24;57287.01;;;-140.43;42.52
30714;BME280;17465;47.934;33.430;2023-03-31T08:50:59;57298.66;;;-140.43;42.20
30714;BME280;17465;47.934;33.430;2023-03-31T08:53:32;57298.66;;;-140.43;42.20
30714;BME280;17465;47.934;33.430;2023-03-31T08:56:04;57278.54;;;-140.43;41.39
30714;BME280;17465;47.934;33.430;2023-03-31T08:58:42;57305.01;;;-140.43;40.38
30714;BME280;17465;47.934;33.430;2023-03-31T09:07:25;57278.54;;;-140.43;40.55
30714;BME280;17465;47.934;33.430;2023-03-31T09:16:01;57279.59;;;-140.43;40.27
30714;BME280;17465;47.934;33.430;2023-03-31T09:18:33;57273.24;;;-140.43;40.67
30714;BME280;17465;47.934;33.430;2023-03-31T09:21:14;57283.83;;;-140.43;40.64
30714;BME280;17465;47.934;33.430;2023-03-31T09:23:56;57279.59;;;-140.43;40.19
30714;BME280;17465;47.934;33.430;2023-03-31T09:26:40;57292.30;;;-140.43;40.62
30714;BME280;17465;47.934;33.430;2023-03-31T09:29:18;57305.01;;;-140.43;41.00
30714;BME280;17465;47.934;33.430;2023-03-31T09:31:48;57280.66;;;-140.43;40.43
30714;BME280;17465;47.934;33.430;2023-03-31T09:34:28;57283.83;;;-140.43;40.48
30714;BME280;17465;47.934;33.430;2023-03-31T09:36:58;57275.36;;;-140.43;40.12
30714;BME280;17465;47.934;33.430;2023-03-31T09:39:29;57308.19;;;-140.43;40.18
30714;BME280;17465;47.934;33.430;2023-03-31T09:42:03;57288.07;;;-140.43;40.63
30714;BME280;17465;47.934;33.430;2023-03-31T09:44:43;57289.13;;;-140.43;40.30
30714;BME280;17465;47.934;33.430;2023-03-31T09:47:33;57280.66;;;-140.43;40.25
30714;BME280;17465;47.934;33.430;2023-03-31T09:50:06;57285.95;;;-140.43;40.69
30714;BME280;17465;47.934;33.430;2023-03-31T09:52:39;57292.30;;;-140.43;41.28
30714;BME280;17465;47.934;33.430;2023-03-31T09:55:52;57290.18;;;-140.43;41.47
30714;BME280;17465;47.934;33.430;2023-03-31T09:58:21;57272.18;;;-140.43;41.37
30714;BME280;17465;47.934;33.430;2023-03-31T10:01:03;57272.18;;;-140.43;41.37
30714;BME280;17465;47.934;33.430;2023-03-31T10:03:52;57305.01;;;-140.43;41.32
30714;BME280;17465;47.934;33.430;2023-03-31T10:06:25;57314.55;;;-140.43;41.23
30714;BME280;17465;47.934;33.430;2023-03-31T10:11:58;57282.77;;;-140.43;41.20
30714;BME280;17465;47.934;33.430;2023-03-31T10:14:45;57293.36;;;-140.43;39.45
30714;BME280;17465;47.934;33.430;2023-03-31T10:17:19;57300.78;;;-140.43;38.86
30714;BME280;17465;47.934;33.430;2023-03-31T10:22:29;57289.13;;;-140.43;38.45
30714;BME280;17465;47.934;33.430;2023-03-31T10:25:09;57291.25;;;-140.43;38.26
30714;BME280;17465;47.934;33.430;2023-03-31T10:27:40;57291.25;;;-140.43;38.26
30714;BME280;17465;47.934;33.430;2023-03-31T10:30:22;57276.42;;;-140.43;35.59
30714;BME280;17465;47.934;33.430;2023-03-31T10:32:54;57290.18;;;-140.43;34.44
30714;BME280;17465;47.934;33.430;2023-03-31T10:35:32;57299.72;;;-140.43;34.49
30714;BME280;17465;47.934;33.430;2023-03-31T10:38:13;57299.72;;;-140.43;34.49
30714;BME280;17465;47.934;33.430;2023-03-31T10:40:47;57337.84;;;-140.43;34.24
30714;BME280;17465;47.934;33.430;2023-03-31T10:43:24;57290.18;;;-140.43;33.60
30714;BME280;17465;47.934;33.430;2023-03-31T10:45:55;57291.25;;;-140.43;33.35
30714;BME280;17465;47.934;33.430;2023-03-31T10:48:43;57285.95;;;-140.43;33.17
30714;BME280;17465;47.934;33.430;2023-03-31T10:51:18;57288.07;;;-140.43;33.48
30714;BME280;17465;47.934;33.430;2023-03-31T10:53:52;57288.07;;;-140.43;33.48
30714;BME280;17465;47.934;33.430;2023-03-31T10:56:35;57282.77;;;-140.43;32.85
30714;BME280;17465;47.934;33.430;2023-03-31T11:08:15;57281.71;;;-140.43;33.08
30714;BME280;17465;47.934;33.430;2023-03-31T11:10:58;57281.71;;;-140.43;33.08
30714;BME280;17465;47.934;33.430;2023-03-31T11:13:47;57291.25;;;-140.43;33.52
30714;BME280;17465;47.934;33.430;2023-03-31T11:16:35;57291.25;;;-140.43;33.31
30714;BME280;17465;47.934;33.430;2023-03-31T11:22:20;57323.02;;;-140.43;33.28
30714;BME280;17465;47.934;33.430;2023-03-31T11:25:10;57323.02;;;-140.43;33.28
30714;BME280;17465;47.934;33.430;2023-03-31T11:31:35;57333.61;;;-140.43;32.50
30714;BME280;17465;47.934;33.430;2023-03-31T11:39:28;57321.96;;;-140.43;31.50
30714;BME280;17465;47.934;33.430;2023-03-31T11:42:02;57320.90;;;-140.43;31.68
30714;BME280;17465;47.934;33.430;2023-03-31T11:44:43;57312.43;;;-140.43;31.59
30714;BME280;17465;47.934;33.430;2023-03-31T11:47:16;57306.07;;;-140.43;31.89
30714;BME280;17465;47.934;33.430;2023-03-31T11:49:46;57314.55;;;-140.43;31.93
30714;BME280;17465;47.934;33.430;2023-03-31T11:52:24;57309.25;;;-140.43;31.81
30714;BME280;17465;47.934;33.430;2023-03-31T11:58:00;57324.07;;;-140.43;31.23
30714;BME280;17465;47.934;33.430;2023-03-31T12:00:39;57324.07;;;-140.43;31.23
30714;BME280;17465;47.934;33.430;2023-03-31T12:06:09;57334.67;;;-140.43;30.11
30714;BME280;17465;47.934;33.430;2023-03-31T12:08:42;57334.67;;;-140.43;30.11
30714;BME280;17465;47.934;33.430;2023-03-31T12:13:51;57355.85;;;-140.43;29.58
30714;BME280;17465;47.934;33.430;2023-03-31T12:16:42;57337.84;;;-140.43;30.16
30714;BME280;17465;47.934;33.430;2023-03-31T12:19:16;57333.61;;;-140.43;29.41
30714;BME280;17465;47.934;33.430;2023-03-31T12:21:55;57310.31;;;-140.43;29.65
30714;BME280;17465;47.934;33.430;2023-03-31T12:24:26;57310.31;;;-140.43;29.65
30714;BME280;17465;47.934;33.430;2023-03-31T12:27:44;57331.49;;;-140.43;29.92
30714;BME280;17465;47.934;33.430;2023-03-31T12:30:13;57321.96;;;-140.43;28.94
30714;BME280;17465;47.934;33.430;2023-03-31T12:32:50;57318.78;;;-140.43;29.07
30714;BME280;17465;47.934;33.430;2023-03-31T12:41:14;57361.14;;;-140.43;31.30
30714;BME280;17465;47.934;33.430;2023-03-31T12:47:10;57316.66;;;-140.43;31.33
30714;BME280;17465;47.934;33.430;2023-03-31T12:50:03;57316.66;;;-140.43;31.33
30714;BME280;17465;47.934;33.430;2023-03-31T12:55:42;57323.02;;;-140.43;31.86
30714;BME280;17465;47.934;33.430;2023-03-31T13:09:04;57314.55;;;-140.43;33.70
30714;BME280;17465;47.934;33.430;2023-03-31T13:11:40;57335.73;;;-140.43;33.79
30714;BME280;17465;47.934;33.430;2023-03-31T13:14:23;57335.73;;;-140.43;33.79
30714;BME280;17465;47.934;33.430;2023-03-31T13:19:47;57311.37;;;-140.43;33.44
30714;BME280;17465;47.934;33.430;2023-03-31T13:22:37;57296.54;;;-140.43;33.77
30714;BME280;17465;47.934;33.430;2023-03-31T13:28:16;57323.02;;;-140.43;33.11
30714;BME280;17465;47.934;33.430;2023-03-31T13:30:44;57329.37;;;-140.43;32.92
30714;BME280;17465;47.934;33.430;2023-03-31T13:33:38;57329.37;;;-140.43;32.92
30714;BME280;17465;47.934;33.430;2023-03-31T13:44:32;57326.20;;;-140.43;33.19
30714;BME280;17465;47.934;33.430;2023-03-31T13:58:57;57316.66;;;-140.43;34.61
30714;BME280;17465;47.934;33.430;2023-03-31T14:07:05;57313.48;;;-140.43;35.57
30714;BME280;17465;47.934;33.430;2023-03-31T14:09:35;57332.55;;;-140.43;35.48
30714;BME280;17465;47.934;33.430;2023-03-31T14:15:19;57308.19;;;-140.43;35.54
30714;BME280;17465;47.934;33.430;2023-03-31T14:17:50;57313.48;;;-140.43;35.59
30714;BME280;17465;47.934;33.430;2023-03-31T14:20:25;57313.48;;;-140.43;35.59
30714;BME280;17465;47.934;33.430;2023-03-31T14:28:50;57311.37;;;-140.43;36.44
30714;BME280;17465;47.934;33.430;2023-03-31T14:31:34;57327.25;;;-140.43;37.53
30714;BME280;17465;47.934;33.430;2023-03-31T14:37:02;57302.89;;;-140.43;38.03
30714;BME280;17465;47.934;33.430;2023-03-31T14:39:41;57302.89;;;-140.43;38.03
30714;BME280;17465;47.934;33.430;2023-03-31T14:42:17;57283.83;;;-140.43;38.10
30714;BME280;17465;47.934;33.430;2023-03-31T14:44:54;57283.83;;;-140.43;38.10
30714;BME280;17465;47.934;33.430;2023-03-31T14:47:25;57309.25;;;-140.43;38.84
30714;BME280;17465;47.934;33.430;2023-03-31T14:50:01;57301.84;;;-140.43;39.54
30714;BME280;17465;47.934;33.430;2023-03-31T14:52:33;57301.84;;;-140.43;39.54
30714;BME280;17465;47.934;33.430;2023-03-31T14:55:12;57306.07;;;-140.43;41.25
30714;BME280;17465;47.934;33.430;2023-03-31T14:57:39;57295.48;;;-140.43;41.92
30714;BME280;17465;47.934;33.430;2023-03-31T15:00:15;57295.48;;;-140.43;41.92
30714;BME280;17465;47.934;33.430;2023-03-31T15:02:47;57314.55;;;-140.43;42.24
30714;BME280;17465;47.934;33.430;2023-03-31T15:05:35;57314.55;;;-140.43;42.24
30714;BME280;17465;47.934;33.430;2023-03-31T15:08:17;57288.07;;;-140.43;43.46
30714;BME280;17465;47.934;33.430;2023-03-31T15:10:53;57292.30;;;-140.43;44.21
30714;BME280;17465;47.934;33.430;2023-03-31T15:13:41;57292.30;;;-140.43;44.21
30714;BME280;17465;47.934;33.430;2023-03-31T15:16:41;57302.89;;;-140.43;44.48
30714;BME280;17465;47.934;33.430;2023-03-31T15:19:23;57296.54;;;-140.43;46.53
30714;BME280;17465;47.934;33.430;2023-03-31T15:21:58;57296.54;;;-140.43;46.53
30714;BME280;17465;47.934;33.430;2023-03-31T15:24:29;57301.84;;;-140.43;47.73
30714;BME280;17465;47.934;33.430;2023-03-31T15:29:44;57298.66;;;-140.43;47.76
30714;BME280;17465;47.934;33.430;2023-03-31T15:32:39;57274.30;;;-140.43;48.07
30714;BME280;17465;47.934;33.430;2023-03-31T15:34:50;57298.66;;;-140.43;48.71
30714;BME280;17465;47.934;33.430;2023-03-31T15:37:26;57276.42;;;-140.43;48.87
30714;BME280;17465;47.934;33.430;2023-03-31T15:39:59;57295.48;;;-140.43;49.27
30714;BME280;17465;47.934;33.430;2023-03-31T15:42:35;57292.30;;;-140.43;49.77
30714;BME280;17465;47.934;33.430;2023-03-31T15:48:03;57288.07;;;-140.43;50.44